createdAt,value
2022-12-11T00:00:25.609Z,1.40
2022-12-11T00:02:52.319Z,1.27
2022-12-11T00:05:18.886Z,1.25
2022-12-11T00:07:45.455Z,1.41
2022-12-11T00:10:12.048Z,1.40
2022-12-11T00:12:38.589Z,1.34
2022-12-11T00:15:05.520Z,1.36
2022-12-11T00:17:32.040Z,1.37
2022-12-11T00:19:58.641Z,1.41
2022-12-11T00:22:25.172Z,1.33
2022-12-11T00:24:51.919Z,1.11
2022-12-11T00:27:18.446Z,1.21
2022-12-11T00:29:45.062Z,1.16
2022-12-11T00:32:11.596Z,1.29
2022-12-11T00:34:38.300Z,1.21
2022-12-11T00:37:04.911Z,1.30
2022-12-11T00:39:31.589Z,1.25
2022-12-11T00:41:58.292Z,1.35
2022-12-11T00:44:25.471Z,1.16
2022-12-11T00:46:52.089Z,1.24
2022-12-11T00:49:18.853Z,1.27
2022-12-11T00:51:45.355Z,1.41
2022-12-11T00:54:11.918Z,1.49
2022-12-11T00:56:38.506Z,1.42
2022-12-11T00:59:05.038Z,1.50
2022-12-11T01:01:31.885Z,1.41
2022-12-11T01:03:58.532Z,1.30
2022-12-11T01:06:27.088Z,1.40
2022-12-11T01:09:12.751Z,1.35
2022-12-11T01:11:39.599Z,1.44
2022-12-11T01:14:06.651Z,1.65
2022-12-11T01:16:33.253Z,1.56
2022-12-11T01:19:00.362Z,1.55
2022-12-11T01:21:26.880Z,1.51
2022-12-11T01:23:53.431Z,1.55
2022-12-11T01:26:20.370Z,1.55
2022-12-11T01:28:50.149Z,1.55
2022-12-11T01:31:18.600Z,1.54
2022-12-11T01:33:45.202Z,1.65
2022-12-11T01:36:15.394Z,1.66
2022-12-11T01:38:43.805Z,1.59
2022-12-11T01:41:10.458Z,1.58
2022-12-11T01:44:03.944Z,1.56
2022-12-11T01:46:32.216Z,1.48
2022-12-11T01:49:00.806Z,1.49
2022-12-11T01:51:29.452Z,1.66
2022-12-11T01:54:01.010Z,1.65
2022-12-11T01:56:32.449Z,1.70
2022-12-11T01:59:07.045Z,1.77
2022-12-11T02:01:43.324Z,1.80
2022-12-11T02:04:15.811Z,1.74
2022-12-11T02:06:48.182Z,1.71
2022-12-11T02:09:18.922Z,1.80
2022-12-11T02:12:21.028Z,1.59
2022-12-11T02:14:59.541Z,1.53
2022-12-11T02:17:37.886Z,1.68
2022-12-11T02:20:16.230Z,1.60
2022-12-11T02:22:51.634Z,1.60
2022-12-11T02:25:32.670Z,1.59
2022-12-11T02:28:23.633Z,1.54
2022-12-11T02:30:54.209Z,1.56
2022-12-11T02:33:30.825Z,1.50
2022-12-11T02:35:57.992Z,1.61
2022-12-11T02:38:30.792Z,1.55
2022-12-11T02:41:00.395Z,1.65
2022-12-11T02:43:27.754Z,1.68
2022-12-11T02:45:55.401Z,1.88
2022-12-11T02:48:24.270Z,1.98
2022-12-11T02:50:56.401Z,1.81
2022-12-11T02:53:27.881Z,1.79
2022-12-11T02:56:02.594Z,1.73
2022-12-11T02:58:33.765Z,1.67
2022-12-11T03:01:00.536Z,1.74
2022-12-11T03:03:29.458Z,1.82
2022-12-11T03:05:56.211Z,1.98
2022-12-11T03:08:22.916Z,2.02
2022-12-11T03:10:49.452Z,2.03
2022-12-11T03:13:19.802Z,2.13
2022-12-11T03:15:57.495Z,1.96
2022-12-11T03:18:41.183Z,1.94
2022-12-11T03:21:26.982Z,1.85
2022-12-11T03:24:05.139Z,1.73
2022-12-11T03:26:38.822Z,1.73
2022-12-11T03:29:33.637Z,1.67
2022-12-11T03:32:23.147Z,1.56
2022-12-11T03:35:03.504Z,1.53
2022-12-11T03:37:34.466Z,1.56
2022-12-11T03:40:07.453Z,1.53
2022-12-11T03:42:35.676Z,1.31
2022-12-11T03:45:04.859Z,1.39
2022-12-11T03:47:33.086Z,1.54
2022-12-11T03:50:01.985Z,1.58
2022-12-11T03:52:29.410Z,1.53
2022-12-11T03:55:00.853Z,1.59
2022-12-11T03:57:32.846Z,1.76
2022-12-11T03:59:59.400Z,1.80
2022-12-11T04:02:25.886Z,1.60
2022-12-11T04:04:52.510Z,1.69
2022-12-11T04:07:18.997Z,1.60
2022-12-11T04:09:45.612Z,1.67
2022-12-11T04:12:12.119Z,1.78
2022-12-11T04:14:57.456Z,1.83
2022-12-11T04:17:42.595Z,2.02
2022-12-11T04:20:28.873Z,2.09
2022-12-11T04:23:14.143Z,2.13
2022-12-11T04:25:40.898Z,2.20
2022-12-11T04:28:07.544Z,2.35
2022-12-11T04:30:34.591Z,2.38
2022-12-11T04:33:01.548Z,2.39
2022-12-11T04:35:28.325Z,2.40
2022-12-11T04:37:54.932Z,2.45
2022-12-11T04:40:21.877Z,2.42
2022-12-11T04:42:48.558Z,2.49
2022-12-11T04:45:15.145Z,2.49
2022-12-11T04:47:42.115Z,2.59
2022-12-11T04:50:11.104Z,2.62
2022-12-11T04:52:37.642Z,2.56
2022-12-11T04:55:06.192Z,2.48
2022-12-11T04:57:33.056Z,2.49
2022-12-11T04:59:59.969Z,2.59
2022-12-11T05:02:26.931Z,2.58
2022-12-11T05:04:53.623Z,2.53
2022-12-11T05:07:20.222Z,2.48
2022-12-11T05:09:46.763Z,2.54
2022-12-11T05:12:13.354Z,2.68
2022-12-11T05:14:39.923Z,2.69
2022-12-11T05:17:06.403Z,2.62
2022-12-11T05:19:32.998Z,2.62
2022-12-11T05:21:59.527Z,2.59
2022-12-11T05:24:26.091Z,2.59
2022-12-11T05:26:52.600Z,2.53
2022-12-11T05:29:19.182Z,2.47
2022-12-11T05:31:45.778Z,2.60
2022-12-11T05:34:12.437Z,2.61
2022-12-11T05:36:38.914Z,2.52
2022-12-11T05:39:05.469Z,2.35
2022-12-11T05:41:32.890Z,2.30
2022-12-11T05:44:00.086Z,2.24
2022-12-11T05:46:29.349Z,2.44
2022-12-11T05:48:58.958Z,2.36
2022-12-11T05:51:27.047Z,2.48
2022-12-11T05:53:55.145Z,2.41
2022-12-11T05:56:25.089Z,2.58
2022-12-11T05:58:52.232Z,2.53
2022-12-11T06:01:27.801Z,2.35
2022-12-11T06:03:55.668Z,2.53
2022-12-11T06:06:23.470Z,2.49
2022-12-11T06:08:51.733Z,2.63
2022-12-11T06:11:23.585Z,2.44
2022-12-11T06:13:51.006Z,2.34
2022-12-11T06:16:17.623Z,2.43
2022-12-11T06:18:45.326Z,2.56
2022-12-11T06:21:13.501Z,2.56
2022-12-11T06:23:41.420Z,2.61
2022-12-11T06:26:08.719Z,2.63
2022-12-11T06:28:35.269Z,2.88
2022-12-11T06:31:02.251Z,2.85
2022-12-11T06:33:29.578Z,2.63
2022-12-11T06:35:56.822Z,2.68
2022-12-11T06:38:23.398Z,2.71
2022-12-11T06:40:57.633Z,2.73
2022-12-11T06:43:24.850Z,2.74
2022-12-11T06:45:52.021Z,2.80
2022-12-11T06:48:19.839Z,2.89
2022-12-11T06:50:46.660Z,2.76
2022-12-11T06:53:16.133Z,2.85
2022-12-11T06:55:43.031Z,2.93
2022-12-11T06:58:10.806Z,2.85
2022-12-11T07:00:38.482Z,2.86
2022-12-11T07:03:05.615Z,2.91
2022-12-11T07:05:33.202Z,2.87
2022-12-11T07:07:59.854Z,2.77
2022-12-11T07:10:26.490Z,2.82
2022-12-11T07:12:54.238Z,2.82
2022-12-11T07:15:21.031Z,2.95
2022-12-11T07:17:47.563Z,2.97
2022-12-11T07:20:14.182Z,3.02
2022-12-11T07:22:46.216Z,3.02
2022-12-11T07:25:14.219Z,2.94
2022-12-11T07:27:41.573Z,2.96
2022-12-11T07:30:09.484Z,2.83
2022-12-11T07:32:36.289Z,2.73
2022-12-11T07:35:03.300Z,2.75
2022-12-11T07:37:29.885Z,2.84
2022-12-11T07:39:56.441Z,2.80
2022-12-11T07:42:23.158Z,2.79
2022-12-11T07:44:49.753Z,2.69
2022-12-11T07:47:16.314Z,2.81
2022-12-11T07:49:42.938Z,2.82
2022-12-11T07:52:09.995Z,2.88
2022-12-11T07:54:36.785Z,2.85
2022-12-11T07:57:03.469Z,3.04
2022-12-11T07:59:30.079Z,3.08
2022-12-11T08:01:56.743Z,3.23
2022-12-11T08:04:23.359Z,3.11
2022-12-11T08:06:51.127Z,3.17
2022-12-11T08:09:21.324Z,3.22
2022-12-11T08:11:51.884Z,3.19
2022-12-11T08:14:19.555Z,3.08
2022-12-11T08:16:46.352Z,3.07
2022-12-11T08:19:13.739Z,3.03
2022-12-11T08:21:40.460Z,3.16
2022-12-11T08:24:08.199Z,3.06
2022-12-11T08:26:34.811Z,3.09
2022-12-11T08:29:02.517Z,2.90
2022-12-11T08:31:29.674Z,2.84
2022-12-11T08:33:57.473Z,3.00
2022-12-11T08:36:24.865Z,3.11
2022-12-11T08:38:52.149Z,3.00
2022-12-11T08:41:21.337Z,3.14
2022-12-11T08:43:49.851Z,2.96
2022-12-11T08:46:16.573Z,2.97
2022-12-11T08:48:43.693Z,2.82
2022-12-11T08:51:17.212Z,2.73
2022-12-11T08:53:44.482Z,2.68
2022-12-11T08:56:15.142Z,2.87
2022-12-11T08:58:42.931Z,2.82
2022-12-11T09:01:19.175Z,2.75
2022-12-11T09:03:45.836Z,2.83
2022-12-11T09:06:15.130Z,3.00
2022-12-11T09:08:46.030Z,2.95
2022-12-11T09:11:20.518Z,2.72
2022-12-11T09:13:47.201Z,2.91
2022-12-11T09:16:17.030Z,3.02
2022-12-11T09:18:46.760Z,3.29
2022-12-11T09:21:15.406Z,3.16
2022-12-11T09:23:42.316Z,3.01
2022-12-11T09:26:14.013Z,2.92
2022-12-11T09:28:45.990Z,3.00
2022-12-11T09:31:27.345Z,2.92
2022-12-11T09:33:57.262Z,2.96
2022-12-11T09:36:24.617Z,2.99
2022-12-11T09:38:51.882Z,2.98
2022-12-11T09:41:21.547Z,2.96
2022-12-11T09:44:03.351Z,2.85
2022-12-11T09:46:34.366Z,2.83
2022-12-11T09:49:03.960Z,2.78
2022-12-11T09:51:39.281Z,2.88
2022-12-11T09:54:05.926Z,2.98
2022-12-11T09:56:36.215Z,3.03
2022-12-11T09:59:19.217Z,3.08
2022-12-11T10:01:54.876Z,3.04
2022-12-11T10:04:54.312Z,2.88
2022-12-11T10:07:49.124Z,2.75
2022-12-11T10:10:40.362Z,2.75
2022-12-11T10:13:15.035Z,2.83
2022-12-11T10:15:58.036Z,2.80
2022-12-11T10:18:29.547Z,2.85
2022-12-11T10:20:56.939Z,2.79
2022-12-11T10:23:35.320Z,2.69
2022-12-11T10:26:10.364Z,2.75
2022-12-11T10:28:37.186Z,2.87
2022-12-11T10:31:22.182Z,2.79
2022-12-11T10:34:02.443Z,2.72
2022-12-11T10:36:32.347Z,2.68
2022-12-11T10:38:59.210Z,2.61
2022-12-11T10:41:31.844Z,2.45
2022-12-11T10:43:59.211Z,2.39
2022-12-11T10:46:32.954Z,2.41
2022-12-11T10:49:01.380Z,2.37
2022-12-11T10:51:31.693Z,2.49
2022-12-11T10:54:07.488Z,2.74
2022-12-11T10:56:37.378Z,2.50
2022-12-11T10:59:04.312Z,2.67
2022-12-11T11:01:32.479Z,2.45
2022-12-11T11:04:18.701Z,2.47
2022-12-11T11:06:45.261Z,2.48
2022-12-11T11:09:37.547Z,2.47
2022-12-11T11:12:07.863Z,2.53
2022-12-11T11:14:34.845Z,2.67
2022-12-11T11:17:01.428Z,2.54
2022-12-11T11:19:33.680Z,2.57
2022-12-11T11:22:14.633Z,2.59
2022-12-11T11:24:46.329Z,2.70
2022-12-11T11:27:43.404Z,2.98
2022-12-11T11:30:25.962Z,2.85
2022-12-11T11:33:00.896Z,3.18
2022-12-11T11:35:30.085Z,3.20
2022-12-11T11:38:22.799Z,3.08
2022-12-11T11:41:08.947Z,3.15
2022-12-11T11:43:47.324Z,3.31
2022-12-11T11:46:16.010Z,3.14
2022-12-11T11:49:13.113Z,3.04
2022-12-11T11:51:46.243Z,3.34
2022-12-11T11:54:41.193Z,3.38
2022-12-11T11:57:22.593Z,3.31
2022-12-11T11:59:53.972Z,3.26
2022-12-11T12:02:20.849Z,3.21
2022-12-11T12:04:51.195Z,3.22
2022-12-11T12:07:39.033Z,3.24
2022-12-11T12:10:34.852Z,3.05
2022-12-11T12:13:24.096Z,3.09
2022-12-11T12:15:59.365Z,3.15
2022-12-11T12:18:58.263Z,2.99
2022-12-11T12:21:35.557Z,2.92
2022-12-11T12:24:56.366Z,2.80
2022-12-11T12:27:52.210Z,2.76
2022-12-11T12:30:22.769Z,3.01
2022-12-11T12:33:02.447Z,3.16
2022-12-11T12:35:37.962Z,3.17
2022-12-11T12:38:15.165Z,3.13
2022-12-11T12:40:57.629Z,3.11
2022-12-11T12:43:35.733Z,3.13
2022-12-11T12:46:22.704Z,3.01
2022-12-11T12:48:52.226Z,3.16
2022-12-11T12:51:19.017Z,2.99
2022-12-11T12:53:55.666Z,3.02
2022-12-11T12:56:24.006Z,2.99
2022-12-11T12:58:50.578Z,3.14
2022-12-11T13:01:21.790Z,3.23
2022-12-11T13:04:06.708Z,3.14
2022-12-11T13:06:39.135Z,3.24
2022-12-11T13:09:18.938Z,3.22
2022-12-11T13:11:47.046Z,3.18
2022-12-11T13:14:13.474Z,3.18
2022-12-11T13:16:42.179Z,3.20
2022-12-11T13:19:23.975Z,3.13
2022-12-11T13:22:06.150Z,2.96
2022-12-11T13:24:34.002Z,3.19
2022-12-11T13:27:30.008Z,2.98
2022-12-11T13:30:06.213Z,2.91
2022-12-11T13:32:33.691Z,3.09
2022-12-11T13:35:05.354Z,2.98
2022-12-11T13:37:38.712Z,3.07
2022-12-11T13:40:22.251Z,3.10
2022-12-11T13:42:59.368Z,3.16
2022-12-11T13:45:30.044Z,3.01
2022-12-11T13:47:58.400Z,3.22
2022-12-11T13:50:32.889Z,3.20
2022-12-11T13:53:01.510Z,3.05
2022-12-11T13:55:32.007Z,2.98
2022-12-11T13:57:58.652Z,3.14
2022-12-11T14:00:28.420Z,3.12
2022-12-11T14:02:57.153Z,3.14
2022-12-11T14:05:24.462Z,3.21
2022-12-11T14:07:54.854Z,3.21
2022-12-11T14:10:24.979Z,3.29
2022-12-11T14:12:57.081Z,3.35
2022-12-11T14:15:24.034Z,3.21
2022-12-11T14:17:52.026Z,3.20
2022-12-11T14:20:24.408Z,3.10
2022-12-11T14:22:51.606Z,2.96
2022-12-11T14:25:24.782Z,2.97
2022-12-11T14:27:54.154Z,3.04
2022-12-11T14:30:30.226Z,2.94
2022-12-11T14:33:02.790Z,2.84
2022-12-11T14:35:38.579Z,2.84
2022-12-11T14:38:30.182Z,2.96
2022-12-11T14:41:02.229Z,3.15
2022-12-11T14:43:35.332Z,2.86
2022-12-11T14:46:10.706Z,2.89
2022-12-11T14:48:43.588Z,3.10
2022-12-11T14:51:17.647Z,2.90
2022-12-11T14:53:48.615Z,2.84
2022-12-11T14:56:25.146Z,2.92
2022-12-11T14:59:06.305Z,2.90
2022-12-11T15:01:35.892Z,3.01
2022-12-11T15:04:04.399Z,3.23
2022-12-11T15:06:34.047Z,3.08
2022-12-11T15:09:18.503Z,3.07
2022-12-11T15:11:46.395Z,2.99
2022-12-11T15:14:13.762Z,2.87
2022-12-11T15:16:42.173Z,2.86
2022-12-11T15:19:20.143Z,3.10
2022-12-11T15:21:47.394Z,3.25
2022-12-11T15:24:27.849Z,3.14
2022-12-11T15:26:58.660Z,2.85
2022-12-11T15:29:37.335Z,2.87
2022-12-11T15:32:18.927Z,3.15
2022-12-11T15:34:55.566Z,3.24
2022-12-11T15:37:30.368Z,3.10
2022-12-11T15:39:59.650Z,3.00
2022-12-11T15:42:30.028Z,2.95
2022-12-11T15:44:56.904Z,2.99
2022-12-11T15:47:26.921Z,2.95
2022-12-11T15:50:02.340Z,2.94
2022-12-11T15:52:29.127Z,2.90
2022-12-11T15:54:55.654Z,3.05
2022-12-11T15:57:24.384Z,2.92
2022-12-11T15:59:52.745Z,2.78
2022-12-11T16:02:19.530Z,2.79
2022-12-11T16:04:46.194Z,2.91
2022-12-11T16:07:16.961Z,2.93
2022-12-11T16:09:43.899Z,2.90
2022-12-11T16:12:10.782Z,3.09
2022-12-11T16:14:40.204Z,2.98
2022-12-11T16:17:08.442Z,2.83
2022-12-11T16:19:36.001Z,2.68
2022-12-11T16:22:02.904Z,2.68
2022-12-11T16:24:30.549Z,2.82
2022-12-11T16:26:57.135Z,2.92
2022-12-11T16:29:24.009Z,2.96
2022-12-11T16:31:50.555Z,3.15
2022-12-11T16:34:17.147Z,3.09
2022-12-11T16:36:43.807Z,3.10
2022-12-11T16:39:12.243Z,3.15
2022-12-11T16:41:38.941Z,3.10
2022-12-11T16:44:06.518Z,2.94
2022-12-11T16:46:33.389Z,3.04
2022-12-11T16:48:59.954Z,3.16
2022-12-11T16:51:26.918Z,3.40
2022-12-11T16:53:53.506Z,3.37
2022-12-11T16:56:20.155Z,3.42
2022-12-11T16:58:47.570Z,3.30
2022-12-11T17:01:15.691Z,3.05
2022-12-11T17:03:43.566Z,3.08
2022-12-11T17:06:12.270Z,3.13
2022-12-11T17:08:39.291Z,3.19
2022-12-11T17:11:07.449Z,3.18
2022-12-11T17:13:36.229Z,3.20
2022-12-11T17:16:14.592Z,3.19
2022-12-11T17:18:42.218Z,3.23
2022-12-11T17:21:12.377Z,3.24
2022-12-11T17:23:40.101Z,3.32
2022-12-11T17:26:09.390Z,3.05
2022-12-11T17:28:36.958Z,3.04
2022-12-11T17:31:05.776Z,2.98
2022-12-11T17:33:32.381Z,2.75
2022-12-11T17:36:00.609Z,2.85
2022-12-11T17:38:27.166Z,3.08
2022-12-11T17:40:54.185Z,2.95
2022-12-11T17:43:20.727Z,2.98
2022-12-11T17:45:55.149Z,2.87
2022-12-11T17:48:22.672Z,2.91
2022-12-11T17:50:51.395Z,2.87
2022-12-11T17:53:20.487Z,3.00
2022-12-11T17:55:48.424Z,3.12
2022-12-11T17:58:17.708Z,2.95
2022-12-11T18:00:46.416Z,2.89
2022-12-11T18:03:14.834Z,2.93
2022-12-11T18:05:53.839Z,2.95
2022-12-11T18:08:24.999Z,2.95
2022-12-11T18:10:52.550Z,2.97
2022-12-11T18:13:19.860Z,2.99
2022-12-11T18:15:46.690Z,2.99
2022-12-11T18:18:13.211Z,2.97
2022-12-11T18:20:39.955Z,2.99
2022-12-11T18:23:06.569Z,2.94
2022-12-11T18:25:33.277Z,2.96
2022-12-11T18:28:00.111Z,3.01
2022-12-11T18:30:27.906Z,2.91
2022-12-11T18:32:54.580Z,2.85
2022-12-11T18:35:21.518Z,2.94
2022-12-11T18:37:48.065Z,2.95
2022-12-11T18:40:14.787Z,3.01
2022-12-11T18:42:41.434Z,3.09
2022-12-11T18:45:08.700Z,3.13
2022-12-11T18:47:35.662Z,2.96
2022-12-11T18:50:07.373Z,2.81
2022-12-11T18:52:35.020Z,2.72
2022-12-11T18:55:01.778Z,2.70
2022-12-11T18:57:28.448Z,2.92
2022-12-11T18:59:55.096Z,2.93
2022-12-11T19:02:22.089Z,3.02
2022-12-11T19:04:48.730Z,3.09
2022-12-11T19:07:15.275Z,2.97
2022-12-11T19:09:47.649Z,2.91
2022-12-11T19:12:14.975Z,3.02
2022-12-11T19:14:41.592Z,3.07
2022-12-11T19:17:08.252Z,2.92
2022-12-11T19:19:35.859Z,3.20
2022-12-11T19:22:02.538Z,3.09
2022-12-11T19:24:29.109Z,3.05
2022-12-11T19:26:56.597Z,3.05
2022-12-11T19:29:29.021Z,3.14
2022-12-11T19:31:55.949Z,3.01
2022-12-11T19:34:23.494Z,2.93
2022-12-11T19:36:50.723Z,2.93
2022-12-11T19:39:17.771Z,3.00
2022-12-11T19:41:44.306Z,2.93
2022-12-11T19:44:11.573Z,2.87
2022-12-11T19:46:38.833Z,3.11
2022-12-11T19:49:05.747Z,3.07
2022-12-11T19:51:36.402Z,2.90
2022-12-11T19:54:04.047Z,2.76
2022-12-11T19:56:32.093Z,2.70
2022-12-11T19:59:00.584Z,2.67
2022-12-11T20:01:30.857Z,2.54
2022-12-11T20:04:00.393Z,2.55
2022-12-11T20:06:29.070Z,2.71
2022-12-11T20:08:55.711Z,2.86
2022-12-11T20:11:22.369Z,3.00
2022-12-11T20:13:49.662Z,3.06
2022-12-11T20:16:17.541Z,2.87
2022-12-11T20:18:45.081Z,2.90
2022-12-11T20:21:14.882Z,2.95
2022-12-11T20:23:41.981Z,2.82
2022-12-11T20:26:30.919Z,2.83
2022-12-11T20:28:57.634Z,2.67
2022-12-11T20:31:25.977Z,2.76
2022-12-11T20:33:55.473Z,2.78
2022-12-11T20:36:23.567Z,2.90
2022-12-11T20:38:50.871Z,2.89
2022-12-11T20:41:20.403Z,3.01
2022-12-11T20:43:48.841Z,3.17
2022-12-11T20:46:17.530Z,3.14
2022-12-11T20:48:45.116Z,3.00
2022-12-11T20:51:13.929Z,3.03
2022-12-11T20:53:42.249Z,3.11
2022-12-11T20:56:16.126Z,3.03
2022-12-11T20:58:43.430Z,3.06
2022-12-11T21:01:15.337Z,2.94
2022-12-11T21:03:42.587Z,2.99
2022-12-11T21:06:33.606Z,2.83
2022-12-11T21:09:02.339Z,2.76
2022-12-11T21:11:29.118Z,2.41
2022-12-11T21:13:55.805Z,2.43
2022-12-11T21:16:22.816Z,2.50
2022-12-11T21:18:49.487Z,2.54
2022-12-11T21:21:16.822Z,2.58
2022-12-11T21:23:44.304Z,2.72
2022-12-11T21:26:10.833Z,2.96
2022-12-11T21:28:37.416Z,2.71
2022-12-11T21:31:07.801Z,2.45
2022-12-11T21:33:35.038Z,2.42
2022-12-11T21:36:03.056Z,2.67
2022-12-11T21:38:29.734Z,2.56
2022-12-11T21:40:57.381Z,2.84
2022-12-11T21:43:24.727Z,2.88
2022-12-11T21:46:01.149Z,3.00
2022-12-11T21:48:28.806Z,2.95
2022-12-11T21:50:55.982Z,2.81
2022-12-11T21:53:22.552Z,2.91
2022-12-11T21:55:49.045Z,3.01
2022-12-11T21:58:15.629Z,2.94
2022-12-11T22:00:42.233Z,2.79
2022-12-11T22:03:08.849Z,2.81
2022-12-11T22:05:35.347Z,2.75
2022-12-11T22:08:02.159Z,2.79
2022-12-11T22:10:29.142Z,2.91
2022-12-11T22:12:55.958Z,2.82
2022-12-11T22:15:22.511Z,2.97
2022-12-11T22:17:49.144Z,2.93
2022-12-11T22:20:15.727Z,2.98
2022-12-11T22:22:42.878Z,2.60
2022-12-11T22:25:09.921Z,2.73
2022-12-11T22:27:36.750Z,2.85
2022-12-11T22:30:04.408Z,2.67
2022-12-11T22:32:31.214Z,2.71
2022-12-11T22:34:57.857Z,2.67
2022-12-11T22:37:24.892Z,2.85
2022-12-11T22:39:51.770Z,2.85
2022-12-11T22:42:18.430Z,2.92
2022-12-11T22:44:44.913Z,2.75
2022-12-11T22:47:11.578Z,2.77
2022-12-11T22:49:38.561Z,2.78
2022-12-11T22:52:05.263Z,2.87
2022-12-11T22:54:31.937Z,3.08
2022-12-11T22:56:58.524Z,3.23
2022-12-11T22:59:25.076Z,3.15
2022-12-11T23:01:51.736Z,3.00
2022-12-11T23:04:18.280Z,3.02
2022-12-11T23:06:44.837Z,2.87
2022-12-11T23:09:11.576Z,2.71
2022-12-11T23:11:38.840Z,2.79
2022-12-11T23:14:08.258Z,2.80
2022-12-11T23:16:35.094Z,2.93
2022-12-11T23:19:02.025Z,2.83
2022-12-11T23:21:29.295Z,3.07
2022-12-11T23:23:57.080Z,2.94
2022-12-11T23:26:24.260Z,2.74
2022-12-11T23:28:50.832Z,2.65
2022-12-11T23:31:17.974Z,2.60
2022-12-11T23:33:44.962Z,2.57
2022-12-11T23:36:12.745Z,2.54
2022-12-11T23:38:40.098Z,2.48
2022-12-11T23:41:08.926Z,2.67
2022-12-11T23:43:36.753Z,2.92
2022-12-11T23:46:04.610Z,2.98
2022-12-11T23:48:31.204Z,3.12
2022-12-11T23:51:00.256Z,3.16
2022-12-11T23:53:28.098Z,3.14
2022-12-11T23:55:54.774Z,3.16
2022-12-11T23:58:21.376Z,3.03
